sensor_id;sensor_type;location;lat;lon;timestamp;pressure;altitude;pressure_sealevel;temperature;humidity
11343;BME280;5726;42.160;24.746;2023-03-01T00:01:06;100347.00;;;7.68;100.00
11343;BME280;5726;42.160;24.746;2023-03-01T00:03:32;100355.69;;;7.80;100.00
11343;BME280;5726;42.160;24.746;2023-03-01T00:05:58;100356.63;;;7.91;100.00
11343;BME280;5726;42.160;24.746;2023-03-01T00:08:25;100354.38;;;7.83;100.00
11343;BME280;5726;42.160;24.746;2023-03-01T00:11:04;100354.94;;;7.85;100.00
11343;BME280;5726;42.160;24.746;2023-03-01T00:13:30;100354.69;;;7.86;100.00
11343;BME280;5726;42.160;24.746;2023-03-01T00:15:55;100342.94;;;7.87;100.00
11343;BME280;5726;42.160;24.746;2023-03-01T00:18:21;100351.19;;;8.07;100.00
11343;BME280;5726;42.160;24.746;2023-03-01T00:20:54;100357.31;;;8.07;100.00
11343;BME280;5726;42.160;24.746;2023-03-01T00:23:21;100350.03;;;7.77;100.00
11343;BME280;5726;42.160;24.746;2023-03-01T00:25:47;100360.34;;;7.90;100.00
11343;BME280;5726;42.160;24.746;2023-03-01T00:28:12;100353.63;;;7.87;100.00
11343;BME280;5726;42.160;24.746;2023-03-01T00:30:38;100356.81;;;8.10;100.00
11343;BME280;5726;42.160;24.746;2023-03-01T00:33:03;100346.63;;;8.07;100.00
11343;BME280;5726;42.160;24.746;2023-03-01T00:35:29;100354.09;;;8.06;100.00
11343;BME280;5726;42.160;24.746;2023-03-01T00:37:58;100355.13;;;8.00;100.00
11343;BME280;5726;42.160;24.746;2023-03-01T00:40:25;100348.34;;;7.92;100.00
11343;BME280;5726;42.160;24.746;2023-03-01T00:42:51;100348.03;;;7.89;100.00
11343;BME280;5726;42.160;24.746;2023-03-01T00:45:16;100342.69;;;7.89;100.00
11343;BME280;5726;42.160;24.746;2023-03-01T00:47:42;100332.63;;;7.96;100.00
11343;BME280;5726;42.160;24.746;2023-03-01T00:50:08;100330.44;;;8.14;100.00
11343;BME280;5726;42.160;24.746;2023-03-01T00:52:33;100323.41;;;8.08;100.00
11343;BME280;5726;42.160;24.746;2023-03-01T00:54:59;100314.41;;;7.88;100.00
11343;BME280;5726;42.160;24.746;2023-03-01T00:57:24;100319.16;;;7.86;100.00
11343;BME280;5726;42.160;24.746;2023-03-01T00:59:50;100312.38;;;8.00;100.00
11343;BME280;5726;42.160;24.746;2023-03-01T01:02:17;100320.94;;;8.02;100.00
11343;BME280;5726;42.160;24.746;2023-03-01T01:04:43;100316.41;;;8.02;100.00
11343;BME280;5726;42.160;24.746;2023-03-01T01:07:08;100322.66;;;7.86;100.00
11343;BME280;5726;42.160;24.746;2023-03-01T01:09:34;100318.63;;;8.10;100.00
11343;BME280;5726;42.160;24.746;2023-03-01T01:11:59;100318.53;;;8.00;100.00
11343;BME280;5726;42.160;24.746;2023-03-01T01:14:25;100317.91;;;8.14;100.00
11343;BME280;5726;42.160;24.746;2023-03-01T01:16:50;100318.63;;;8.10;100.00
11343;BME280;5726;42.160;24.746;2023-03-01T01:19:16;100320.66;;;7.98;100.00
11343;BME280;5726;42.160;24.746;2023-03-01T01:21:41;100314.16;;;7.89;100.00
11343;BME280;5726;42.160;24.746;2023-03-01T01:24:11;100318.63;;;7.84;100.00
11343;BME280;5726;42.160;24.746;2023-03-01T01:26:37;100310.09;;;7.87;100.00
11343;BME280;5726;42.160;24.746;2023-03-01T01:29:04;100309.84;;;7.88;100.00
11343;BME280;5726;42.160;24.746;2023-03-01T01:31:30;100307.34;;;8.03;100.00
11343;BME280;5726;42.160;24.746;2023-03-01T01:33:57;100317.56;;;8.11;100.00
11343;BME280;5726;42.160;24.746;2023-03-01T01:36:23;100299.97;;;7.89;100.00
11343;BME280;5726;42.160;24.746;2023-03-01T01:38:49;100302.72;;;7.94;100.00
11343;BME280;5726;42.160;24.746;2023-03-01T01:41:15;100302.50;;;8.00;100.00
11343;BME280;5726;42.160;24.746;2023-03-01T01:43:43;100297.16;;;8.00;100.00
11343;BME280;5726;42.160;24.746;2023-03-01T01:46:26;100302.72;;;7.94;100.00
11343;BME280;5726;42.160;24.746;2023-03-01T01:49:00;100304.41;;;8.05;100.00
11343;BME280;5726;42.160;24.746;2023-03-01T01:51:33;100306.03;;;8.06;100.00
11343;BME280;5726;42.160;24.746;2023-03-01T01:54:08;100297.88;;;7.91;100.00
11343;BME280;5726;42.160;24.746;2023-03-01T01:56:36;100295.78;;;7.98;100.00
11343;BME280;5726;42.160;24.746;2023-03-01T01:59:03;100294.69;;;7.94;100.00
11343;BME280;5726;42.160;24.746;2023-03-01T02:01:29;100295.22;;;7.91;100.00
11343;BME280;5726;42.160;24.746;2023-03-01T02:03:54;100291.41;;;7.87;100.00
11343;BME280;5726;42.160;24.746;2023-03-01T02:08:47;100302.63;;;7.89;100.00
11343;BME280;5726;42.160;24.746;2023-03-01T02:11:14;100288.84;;;7.97;100.00
11343;BME280;5726;42.160;24.746;2023-03-01T02:13:41;100295.28;;;8.01;100.00
11343;BME280;5726;42.160;24.746;2023-03-01T02:16:12;100293.47;;;8.06;100.00
11343;BME280;5726;42.160;24.746;2023-03-01T02:18:39;100289.16;;;8.00;100.00
11343;BME280;5726;42.160;24.746;2023-03-01T02:23:42;100283.41;;;7.87;100.00
11343;BME280;5726;42.160;24.746;2023-03-01T02:26:20;100290.38;;;7.88;100.00
11343;BME280;5726;42.160;24.746;2023-03-01T02:28:50;100286.78;;;7.77;100.00
11343;BME280;5726;42.160;24.746;2023-03-01T02:31:17;100297.88;;;7.91;100.00
11343;BME280;5726;42.160;24.746;2023-03-01T02:34:02;100294.13;;;7.92;100.00
11343;BME280;5726;42.160;24.746;2023-03-01T02:36:53;100288.78;;;7.92;100.00
11343;BME280;5726;42.160;24.746;2023-03-01T02:39:31;100290.56;;;7.81;100.00
11343;BME280;5726;42.160;24.746;2023-03-01T02:41:57;100289.22;;;7.79;100.00
11343;BME280;5726;42.160;24.746;2023-03-01T02:44:25;100285.56;;;7.90;100.00
11343;BME280;5726;42.160;24.746;2023-03-01T02:46:53;100290.22;;;7.73;100.00
11343;BME280;5726;42.160;24.746;2023-03-01T02:52:23;100279.63;;;7.83;100.00
11343;BME280;5726;42.160;24.746;2023-03-01T02:55:24;100279.84;;;8.03;100.00
11343;BME280;5726;42.160;24.746;2023-03-01T02:57:49;100288.53;;;7.93;100.00
11343;BME280;5726;42.160;24.746;2023-03-01T03:00:22;100287.19;;;7.91;100.00
11343;BME280;5726;42.160;24.746;2023-03-01T03:02:50;100281.84;;;7.91;100.00
11343;BME280;5726;42.160;24.746;2023-03-01T03:05:19;100285.44;;;7.75;100.00
11343;BME280;5726;42.160;24.746;2023-03-01T03:07:47;100275.91;;;7.84;100.00
11343;BME280;5726;42.160;24.746;2023-03-01T03:10:35;100281.38;;;7.72;100.00
11343;BME280;5726;42.160;24.746;2023-03-01T03:13:04;100270.38;;;7.64;100.00
11343;BME280;5726;42.160;24.746;2023-03-01T03:15:30;100272.06;;;7.75;100.00
11343;BME280;5726;42.160;24.746;2023-03-01T03:17:57;100277.38;;;7.70;100.00
11343;BME280;5726;42.160;24.746;2023-03-01T03:20:25;100275.63;;;7.59;100.00
11343;BME280;5726;42.160;24.746;2023-03-01T03:22:53;100274.44;;;7.71;100.00
11343;BME280;5726;42.160;24.746;2023-03-01T03:25:19;100273.44;;;7.77;100.00
11343;BME280;5726;42.160;24.746;2023-03-01T03:27:47;100275.38;;;7.82;100.00
11343;BME280;5726;42.160;24.746;2023-03-01T03:30:18;100281.72;;;7.76;100.00
11343;BME280;5726;42.160;24.746;2023-03-01T03:32:45;100277.81;;;7.62;100.00
11343;BME280;5726;42.160;24.746;2023-03-01T03:35:23;100287.44;;;7.63;100.00
11343;BME280;5726;42.160;24.746;2023-03-01T03:37:50;100282.09;;;7.63;100.00
11343;BME280;5726;42.160;24.746;2023-03-01T03:42:54;100282.38;;;7.66;100.00
11343;BME280;5726;42.160;24.746;2023-03-01T03:45:38;100270.38;;;7.64;100.00
11343;BME280;5726;42.160;24.746;2023-03-01T03:48:23;100263.41;;;7.63;100.00
11343;BME280;5726;42.160;24.746;2023-03-01T03:50:54;100259.88;;;7.58;100.00
11343;BME280;5726;42.160;24.746;2023-03-01T03:53:23;100265.47;;;7.56;100.00
11343;BME280;5726;42.160;24.746;2023-03-01T03:55:49;100255.44;;;7.68;100.00
11343;BME280;5726;42.160;24.746;2023-03-01T03:58:15;100266.13;;;7.68;100.00
11343;BME280;5726;42.160;24.746;2023-03-01T04:00:43;100274.09;;;7.63;100.00
11343;BME280;5726;42.160;24.746;2023-03-01T04:03:29;100276.38;;;7.76;100.00
11343;BME280;5726;42.160;24.746;2023-03-01T04:05:57;100277.47;;;7.80;100.00
11343;BME280;5726;42.160;24.746;2023-03-01T04:08:24;100275.22;;;7.67;100.00
11343;BME280;5726;42.160;24.746;2023-03-01T04:10:52;100266.34;;;7.61;100.00
11343;BME280;5726;42.160;24.746;2023-03-01T04:13:20;100278.31;;;7.59;100.00
11343;BME280;5726;42.160;24.746;2023-03-01T04:15:48;100275.72;;;7.64;100.00
11343;BME280;5726;42.160;24.746;2023-03-01T04:18:15;100277.06;;;7.66;100.00
11343;BME280;5726;42.160;24.746;2023-03-01T04:20:42;100282.47;;;7.71;100.00
11343;BME280;5726;42.160;24.746;2023-03-01T04:23:10;100278.53;;;7.79;100.00
11343;BME280;5726;42.160;24.746;2023-03-01T04:25:39;100283.75;;;7.69;100.00
11343;BME280;5726;42.160;24.746;2023-03-01T04:28:05;100281.22;;;7.79;100.00
11343;BME280;5726;42.160;24.746;2023-03-01T04:30:31;100275.63;;;7.80;100.00
11343;BME280;5726;42.160;24.746;2023-03-01T04:33:02;100281.34;;;7.67;100.00
11343;BME280;5726;42.160;24.746;2023-03-01T04:35:29;100275.00;;;7.73;100.00
11343;BME280;5726;42.160;24.746;2023-03-01T04:37:54;100287.53;;;7.73;100.00
11343;BME280;5726;42.160;24.746;2023-03-01T04:40:20;100281.59;;;7.66;100.00
11343;BME280;5726;42.160;24.746;2023-03-01T04:42:46;100292.56;;;7.69;100.00
11343;BME280;5726;42.160;24.746;2023-03-01T04:45:12;100292.72;;;7.84;100.00
11343;BME280;5726;42.160;24.746;2023-03-01T04:47:41;100292.00;;;7.67;100.00
11343;BME280;5726;42.160;24.746;2023-03-01T04:50:08;100284.91;;;7.78;100.00
11343;BME280;5726;42.160;24.746;2023-03-01T04:52:35;100299.81;;;7.74;100.00
11343;BME280;5726;42.160;24.746;2023-03-01T04:55:01;100291.72;;;7.64;100.00
11343;BME280;5726;42.160;24.746;2023-03-01T04:57:26;100288.56;;;7.67;100.00
11343;BME280;5726;42.160;24.746;2023-03-01T04:59:52;100283.00;;;7.73;100.00
11343;BME280;5726;42.160;24.746;2023-03-01T05:02:17;100291.78;;;7.95;100.00
11343;BME280;5726;42.160;24.746;2023-03-01T05:04:43;100282.03;;;7.84;100.00
11343;BME280;5726;42.160;24.746;2023-03-01T05:07:08;100281.25;;;7.84;100.00
11343;BME280;5726;42.160;24.746;2023-03-01T05:09:34;100284.66;;;7.79;100.00
11343;BME280;5726;42.160;24.746;2023-03-01T05:11:59;100278.53;;;7.79;100.00
11343;BME280;5726;42.160;24.746;2023-03-01T05:14:25;100281.13;;;7.74;100.00
11343;BME280;5726;42.160;24.746;2023-03-01T05:16:50;100286.88;;;7.61;100.00
11343;BME280;5726;42.160;24.746;2023-03-01T05:19:15;100283.63;;;7.59;100.00
11343;BME280;5726;42.160;24.746;2023-03-01T05:21:42;100282.56;;;7.55;100.00
11343;BME280;5726;42.160;24.746;2023-03-01T05:24:28;100287.25;;;7.48;100.00
11343;BME280;5726;42.160;24.746;2023-03-01T05:26:54;100285.97;;;7.51;100.00
11343;BME280;5726;42.160;24.746;2023-03-01T05:29:23;100287.31;;;7.53;100.00
11343;BME280;5726;42.160;24.746;2023-03-01T05:31:56;100286.81;;;7.56;100.00
11343;BME280;5726;42.160;24.746;2023-03-01T05:34:34;100288.81;;;7.65;100.00
11343;BME280;5726;42.160;24.746;2023-03-01T05:37:01;100293.44;;;7.75;100.00
11343;BME280;5726;42.160;24.746;2023-03-01T05:39:28;100293.94;;;7.72;100.00
11343;BME280;5726;42.160;24.746;2023-03-01T05:41:55;100292.97;;;7.83;100.00
11343;BME280;5726;42.160;24.746;2023-03-01T05:44:21;100299.31;;;7.77;100.00
11343;BME280;5726;42.160;24.746;2023-03-01T05:46:47;100298.97;;;7.68;100.00
11343;BME280;5726;42.160;24.746;2023-03-01T05:49:13;100297.47;;;7.77;100.00
11343;BME280;5726;42.160;24.746;2023-03-01T05:51:40;100298.38;;;7.88;100.00
11343;BME280;5726;42.160;24.746;2023-03-01T05:54:06;100307.56;;;7.97;100.00
11343;BME280;5726;42.160;24.746;2023-03-01T05:56:33;100311.88;;;7.76;100.00
11343;BME280;5726;42.160;24.746;2023-03-01T05:59:00;100311.25;;;8.48;100.00
11343;BME280;5726;42.160;24.746;2023-03-01T06:01:25;100322.31;;;8.61;100.00
11343;BME280;5726;42.160;24.746;2023-03-01T06:03:51;100330.69;;;8.75;100.00
11343;BME280;5726;42.160;24.746;2023-03-01T06:06:16;100329.84;;;9.05;100.00
11343;BME280;5726;42.160;24.746;2023-03-01T06:08:42;100326.72;;;9.18;100.00
11343;BME280;5726;42.160;24.746;2023-03-01T06:11:07;100326.81;;;8.97;100.00
11343;BME280;5726;42.160;24.746;2023-03-01T06:13:33;100320.47;;;8.67;100.00
11343;BME280;5726;42.160;24.746;2023-03-01T06:15:58;100325.66;;;8.78;100.00
11343;BME280;5726;42.160;24.746;2023-03-01T06:18:23;100318.19;;;8.49;100.00
11343;BME280;5726;42.160;24.746;2023-03-01T06:20:53;100324.56;;;8.43;100.00
11343;BME280;5726;42.160;24.746;2023-03-01T06:23:19;100318.16;;;8.44;100.00
11343;BME280;5726;42.160;24.746;2023-03-01T06:25:44;100311.06;;;8.28;100.00
11343;BME280;5726;42.160;24.746;2023-03-01T06:28:10;100323.88;;;8.26;100.00
11343;BME280;5726;42.160;24.746;2023-03-01T06:30:35;100322.59;;;8.07;100.00
11343;BME280;5726;42.160;24.746;2023-03-01T06:33:00;100324.22;;;8.08;100.00
11343;BME280;5726;42.160;24.746;2023-03-01T06:35:29;100322.50;;;7.98;100.00
11343;BME280;5726;42.160;24.746;2023-03-01T06:37:55;100325.75;;;8.00;100.00
11343;BME280;5726;42.160;24.746;2023-03-01T06:40:20;100318.03;;;8.03;100.00
11343;BME280;5726;42.160;24.746;2023-03-01T06:42:50;100320.44;;;8.05;100.00
11343;BME280;5726;42.160;24.746;2023-03-01T06:45:18;100318.28;;;8.02;100.00
11343;BME280;5726;42.160;24.746;2023-03-01T06:47:44;100321.16;;;8.21;100.00
11343;BME280;5726;42.160;24.746;2023-03-01T06:50:09;100319.75;;;8.14;100.00
11343;BME280;5726;42.160;24.746;2023-03-01T06:52:35;100331.81;;;8.16;100.00
11343;BME280;5726;42.160;24.746;2023-03-01T06:55:01;100324.22;;;8.08;100.00
11343;BME280;5726;42.160;24.746;2023-03-01T06:57:27;100318.94;;;8.13;100.00
11343;BME280;5726;42.160;24.746;2023-03-01T06:59:52;100316.22;;;8.08;100.00
11343;BME280;5726;42.160;24.746;2023-03-01T07:02:18;100324.28;;;8.13;100.00
11343;BME280;5726;42.160;24.746;2023-03-01T07:04:44;100322.75;;;7.96;100.00
11343;BME280;5726;42.160;24.746;2023-03-01T07:07:09;100328.09;;;8.17;100.00
11343;BME280;5726;42.160;24.746;2023-03-01T07:09:35;100324.66;;;8.01;100.00
11343;BME280;5726;42.160;24.746;2023-03-01T07:12:00;100320.97;;;8.28;100.00
11343;BME280;5726;42.160;24.746;2023-03-01T07:14:25;100330.72;;;8.44;100.00
11343;BME280;5726;42.160;24.746;2023-03-01T07:16:54;100335.53;;;8.47;100.00
11343;BME280;5726;42.160;24.746;2023-03-01T07:19:20;100327.25;;;8.43;100.00
11343;BME280;5726;42.160;24.746;2023-03-01T07:21:46;100326.59;;;8.31;100.00
11343;BME280;5726;42.160;24.746;2023-03-01T07:24:12;100321.25;;;8.31;100.00
11343;BME280;5726;42.160;24.746;2023-03-01T07:26:37;100325.22;;;8.29;100.00
11343;BME280;5726;42.160;24.746;2023-03-01T07:29:04;100328.84;;;8.44;100.00
11343;BME280;5726;42.160;24.746;2023-03-01T07:31:30;100326.38;;;8.38;100.00
11343;BME280;5726;42.160;24.746;2023-03-01T07:33:55;100319.63;;;8.61;100.00
11343;BME280;5726;42.160;24.746;2023-03-01T07:36:22;100315.03;;;8.57;100.00
11343;BME280;5726;42.160;24.746;2023-03-01T07:38:47;100322.63;;;8.70;100.00
11343;BME280;5726;42.160;24.746;2023-03-01T07:41:13;100316.16;;;8.61;100.00
11343;BME280;5726;42.160;24.746;2023-03-01T07:43:38;100316.84;;;8.47;100.00
11343;BME280;5726;42.160;24.746;2023-03-01T07:46:04;100312.84;;;8.49;100.00
11343;BME280;5726;42.160;24.746;2023-03-01T07:48:30;100315.56;;;8.54;100.00
11343;BME280;5726;42.160;24.746;2023-03-01T07:51:00;100306.72;;;8.49;100.00
11343;BME280;5726;42.160;24.746;2023-03-01T07:53:25;100321.47;;;8.56;100.00
11343;BME280;5726;42.160;24.746;2023-03-01T07:56:00;100309.19;;;8.60;100.00
11343;BME280;5726;42.160;24.746;2023-03-01T07:58:26;100322.53;;;8.55;100.00
11343;BME280;5726;42.160;24.746;2023-03-01T08:00:51;100308.03;;;8.46;100.00
11343;BME280;5726;42.160;24.746;2023-03-01T08:03:17;100311.91;;;8.65;100.00
11343;BME280;5726;42.160;24.746;2023-03-01T08:05:42;100300.63;;;8.58;100.00
11343;BME280;5726;42.160;24.746;2023-03-01T08:08:07;100313.00;;;8.69;100.00
11343;BME280;5726;42.160;24.746;2023-03-01T08:10:33;100308.41;;;8.59;100.00
11343;BME280;5726;42.160;24.746;2023-03-01T08:12:58;100315.91;;;8.62;100.00
11343;BME280;5726;42.160;24.746;2023-03-01T08:15:24;100304.22;;;8.73;100.00
11343;BME280;5726;42.160;24.746;2023-03-01T08:17:49;100313.25;;;8.67;100.00
11343;BME280;5726;42.160;24.746;2023-03-01T08:20:15;100307.03;;;8.57;100.00
11343;BME280;5726;42.160;24.746;2023-03-01T08:22:41;100300.13;;;8.61;100.00
11343;BME280;5726;42.160;24.746;2023-03-01T08:25:07;100311.59;;;8.61;100.00
11343;BME280;5726;42.160;24.746;2023-03-01T08:27:33;100316.00;;;8.77;100.00
11343;BME280;5726;42.160;24.746;2023-03-01T08:29:58;100313.59;;;8.76;100.00
11343;BME280;5726;42.160;24.746;2023-03-01T08:32:24;100308.06;;;8.87;100.00
11343;BME280;5726;42.160;24.746;2023-03-01T08:34:49;100301.22;;;8.65;100.00
11343;BME280;5726;42.160;24.746;2023-03-01T08:37:15;100301.53;;;8.73;100.00
11343;BME280;5726;42.160;24.746;2023-03-01T08:39:40;100309.19;;;8.96;100.00
11343;BME280;5726;42.160;24.746;2023-03-01T08:42:06;100305.94;;;8.53;100.00
11343;BME280;5726;42.160;24.746;2023-03-01T08:44:31;100314.34;;;8.66;100.00
11343;BME280;5726;42.160;24.746;2023-03-01T08:46:56;100308.00;;;8.77;100.00
11343;BME280;5726;42.160;24.746;2023-03-01T08:49:22;100305.59;;;8.81;100.00
11343;BME280;5726;42.160;24.746;2023-03-01T08:51:49;100309.19;;;8.60;100.00
11343;BME280;5726;42.160;24.746;2023-03-01T08:54:16;100316.75;;;8.68;100.00
11343;BME280;5726;42.160;24.746;2023-03-01T08:56:42;100297.44;;;8.61;100.00
11343;BME280;5726;42.160;24.746;2023-03-01T08:59:07;100300.25;;;8.81;100.00
11343;BME280;5726;42.160;24.746;2023-03-01T09:01:33;100306.44;;;8.86;100.00
11343;BME280;5726;42.160;24.746;2023-03-01T09:03:58;100305.16;;;8.94;100.00
11343;BME280;5726;42.160;24.746;2023-03-01T09:06:24;100307.56;;;8.90;100.00
11343;BME280;5726;42.160;24.746;2023-03-01T09:08:50;100302.31;;;8.69;100.00
11343;BME280;5726;42.160;24.746;2023-03-01T09:11:20;100315.72;;;8.74;100.00
11343;BME280;5726;42.160;24.746;2023-03-01T09:13:47;100310.69;;;8.82;100.00
11343;BME280;5726;42.160;24.746;2023-03-01T09:16:17;100308.59;;;8.89;100.00
11343;BME280;5726;42.160;24.746;2023-03-01T09:18:43;100307.38;;;8.65;100.00
11343;BME280;5726;42.160;24.746;2023-03-01T09:21:13;100321.06;;;8.74;100.00
11343;BME280;5726;42.160;24.746;2023-03-01T09:23:41;100313.06;;;8.74;100.00
11343;BME280;5726;42.160;24.746;2023-03-01T09:26:25;100315.53;;;8.85;100.00
11343;BME280;5726;42.160;24.746;2023-03-01T09:28:53;100317.91;;;8.82;100.00
11343;BME280;5726;42.160;24.746;2023-03-01T09:31:20;100305.16;;;8.94;100.00
11343;BME280;5726;42.160;24.746;2023-03-01T09:33:48;100305.44;;;8.97;100.00
11343;BME280;5726;42.160;24.746;2023-03-01T09:36:16;100303.50;;;8.88;100.00
11343;BME280;5726;42.160;24.746;2023-03-01T09:38:42;100297.97;;;8.63;100.00
11343;BME280;5726;42.160;24.746;2023-03-01T09:43:50;100304.88;;;8.90;100.00
11343;BME280;5726;42.160;24.746;2023-03-01T09:46:23;100303.50;;;8.83;100.00
11343;BME280;5726;42.160;24.746;2023-03-01T09:48:55;100297.13;;;8.94;100.00
11343;BME280;5726;42.160;24.746;2023-03-01T09:51:30;100295.06;;;9.10;100.00
11343;BME280;5726;42.160;24.746;2023-03-01T09:53:56;100289.69;;;9.01;100.00
11343;BME280;5726;42.160;24.746;2023-03-01T09:56:46;100281.34;;;8.92;100.00
11343;BME280;5726;42.160;24.746;2023-03-01T09:59:41;100290.75;;;9.04;100.00
11343;BME280;5726;42.160;24.746;2023-03-01T10:04:55;100273.41;;;9.07;100.00
11343;BME280;5726;42.160;24.746;2023-03-01T10:10:36;100272.09;;;9.09;100.00
11343;BME280;5726;42.160;24.746;2023-03-01T10:13:13;100275.28;;;9.11;100.00
11343;BME280;5726;42.160;24.746;2023-03-01T10:15:48;100281.44;;;9.12;100.00
11343;BME280;5726;42.160;24.746;2023-03-01T10:18:41;100266.50;;;9.16;100.00
11343;BME280;5726;42.160;24.746;2023-03-01T10:21:17;100278.75;;;9.07;100.00
11343;BME280;5726;42.160;24.746;2023-03-01T10:23:43;100272.31;;;9.03;100.00
11343;BME280;5726;42.160;24.746;2023-03-01T10:29:10;100272.59;;;9.06;100.00
11343;BME280;5726;42.160;24.746;2023-03-01T10:31:46;100256.00;;;9.04;100.00
11343;BME280;5726;42.160;24.746;2023-03-01T10:34:13;100267.13;;;8.87;100.00
11343;BME280;5726;42.160;24.746;2023-03-01T10:36:41;100272.81;;;9.00;100.00
11343;BME280;5726;42.160;24.746;2023-03-01T10:39:19;100268.47;;;8.84;100.00
11343;BME280;5726;42.160;24.746;2023-03-01T10:41:55;100273.50;;;8.81;100.00
11343;BME280;5726;42.160;24.746;2023-03-01T10:44:47;100269.00;;;8.86;100.00
11343;BME280;5726;42.160;24.746;2023-03-01T10:47:19;100252.84;;;9.12;100.00
11343;BME280;5726;42.160;24.746;2023-03-01T10:49:57;100255.22;;;9.09;100.00
11343;BME280;5726;42.160;24.746;2023-03-01T10:52:37;100256.50;;;8.97;100.00
11343;BME280;5726;42.160;24.746;2023-03-01T10:57:49;100253.22;;;8.85;100.00
11343;BME280;5726;42.160;24.746;2023-03-01T11:00:17;100261.84;;;8.97;100.00
11343;BME280;5726;42.160;24.746;2023-03-01T11:02:47;100241.94;;;8.78;100.00
11343;BME280;5726;42.160;24.746;2023-03-01T11:07:55;100238.84;;;8.96;100.00
11343;BME280;5726;42.160;24.746;2023-03-01T11:10:29;100233.34;;;9.22;100.00
11343;BME280;5726;42.160;24.746;2023-03-01T11:15:31;100219.09;;;9.06;100.00
11343;BME280;5726;42.160;24.746;2023-03-01T11:17:57;100218.00;;;9.03;100.00
11343;BME280;5726;42.160;24.746;2023-03-01T11:20:48;100219.31;;;9.00;100.00
11343;BME280;5726;42.160;24.746;2023-03-01T11:23:17;100210.94;;;8.77;100.00
11343;BME280;5726;42.160;24.746;2023-03-01T11:25:47;100218.91;;;8.67;100.00
11343;BME280;5726;42.160;24.746;2023-03-01T11:28:17;100210.16;;;8.81;100.00
11343;BME280;5726;42.160;24.746;2023-03-01T11:30:56;100216.31;;;8.87;100.00
11343;BME280;5726;42.160;24.746;2023-03-01T11:36:13;100193.81;;;8.78;100.00
11343;BME280;5726;42.160;24.746;2023-03-01T11:38:41;100186.97;;;8.92;100.00
11343;BME280;5726;42.160;24.746;2023-03-01T11:41:14;100190.16;;;8.89;100.00
11343;BME280;5726;42.160;24.746;2023-03-01T11:56:36;100166.66;;;9.01;100.00
11343;BME280;5726;42.160;24.746;2023-03-01T12:01:44;100182.66;;;8.91;100.00
11343;BME280;5726;42.160;24.746;2023-03-01T12:10:02;100172.22;;;8.84;100.00
11343;BME280;5726;42.160;24.746;2023-03-01T12:15:32;100172.53;;;9.03;100.00
11343;BME280;5726;42.160;24.746;2023-03-01T12:34:19;100143.38;;;8.96;100.00
11343;BME280;5726;42.160;24.746;2023-03-01T12:42:03;100151.47;;;9.16;100.00
11343;BME280;5726;42.160;24.746;2023-03-01T12:47:43;100148.03;;;9.35;100.00
11343;BME280;5726;42.160;24.746;2023-03-01T12:50:23;100149.88;;;9.20;100.00
11343;BME280;5726;42.160;24.746;2023-03-01T12:52:57;100138.03;;;9.06;100.00
11343;BME280;5726;42.160;24.746;2023-03-01T12:55:32;100149.31;;;9.08;100.00
11343;BME280;5726;42.160;24.746;2023-03-01T13:03:41;100150.31;;;8.97;100.00
11343;BME280;5726;42.160;24.746;2023-03-01T13:06:20;100139.88;;;8.91;100.00
11343;BME280;5726;42.160;24.746;2023-03-01T13:09:43;100139.72;;;9.37;100.00
11343;BME280;5726;42.160;24.746;2023-03-01T13:11:44;100151.75;;;9.34;100.00
11343;BME280;5726;42.160;24.746;2023-03-01T13:16:51;100140.94;;;8.90;100.00
11343;BME280;5726;42.160;24.746;2023-03-01T13:21:47;100148.53;;;9.22;100.00
11343;BME280;5726;42.160;24.746;2023-03-01T13:24:29;100147.41;;;9.08;100.00
11343;BME280;5726;42.160;24.746;2023-03-01T13:29:51;100155.97;;;9.05;100.00
11343;BME280;5726;42.160;24.746;2023-03-01T13:32:34;100148.78;;;9.16;100.00
11343;BME280;5726;42.160;24.746;2023-03-01T13:37:42;100153.81;;;9.03;100.00
11343;BME280;5726;42.160;24.746;2023-03-01T13:42:44;100154.09;;;9.06;100.00
11343;BME280;5726;42.160;24.746;2023-03-01T13:47:52;100147.41;;;9.04;100.00
11343;BME280;5726;42.160;24.746;2023-03-01T13:50:23;100145.28;;;9.05;100.00
11343;BME280;5726;42.160;24.746;2023-03-01T13:53:05;100147.41;;;9.08;100.00
11343;BME280;5726;42.160;24.746;2023-03-01T13:55:43;100153.88;;;9.12;100.00
11343;BME280;5726;42.160;24.746;2023-03-01T13:58:21;100157.50;;;8.82;100.00
11343;BME280;5726;42.160;24.746;2023-03-01T14:00:47;100154.31;;;8.90;100.00
11343;BME280;5726;42.160;24.746;2023-03-01T14:03:13;100143.09;;;8.93;100.00
11343;BME280;5726;42.160;24.746;2023-03-01T14:05:42;100147.38;;;8.99;100.00
11343;BME280;5726;42.160;24.746;2023-03-01T14:08:25;100147.69;;;9.02;100.00
11343;BME280;5726;42.160;24.746;2023-03-01T14:14:23;100147.47;;;9.18;100.00
11343;BME280;5726;42.160;24.746;2023-03-01T14:19:30;100151.75;;;9.34;100.00
11343;BME280;5726;42.160;24.746;2023-03-01T14:22:27;100146.09;;;9.16;100.00
11343;BME280;5726;42.160;24.746;2023-03-01T14:27:32;100152.78;;;9.13;100.00
11343;BME280;5726;42.160;24.746;2023-03-01T14:30:01;100146.09;;;9.11;100.00
11343;BME280;5726;42.160;24.746;2023-03-01T14:32:29;100142.63;;;9.15;100.00
11343;BME280;5726;42.160;24.746;2023-03-01T14:34:56;100150.13;;;9.23;100.00
11343;BME280;5726;42.160;24.746;2023-03-01T14:39:51;100152.28;;;9.21;100.00
11343;BME280;5726;42.160;24.746;2023-03-01T14:42:18;100157.06;;;9.14;100.00
11343;BME280;5726;42.160;24.746;2023-03-01T14:44:47;100158.16;;;9.18;100.00
11343;BME280;5726;42.160;24.746;2023-03-01T14:47:25;100152.84;;;9.38;100.00
11343;BME280;5726;42.160;24.746;2023-03-01T14:49:57;100154.22;;;9.55;100.00
11343;BME280;5726;42.160;24.746;2023-03-01T14:52:32;100147.00;;;9.76;100.00
11343;BME280;5726;42.160;24.746;2023-03-01T14:55:00;100144.84;;;9.83;100.00